createdAt,value
2024-01-04T00:00:26.625Z,8.80
2024-01-04T00:01:26.589Z,8.72
2024-01-04T00:02:26.576Z,8.70
2024-01-04T00:03:26.608Z,8.77
2024-01-04T00:04:26.555Z,8.78
2024-01-04T00:05:26.663Z,8.77
2024-01-04T00:06:26.581Z,8.78
2024-01-04T00:07:26.497Z,8.69
2024-01-04T00:08:26.480Z,8.78
2024-01-04T00:09:26.451Z,8.78
2024-01-04T00:10:26.440Z,8.67
2024-01-04T00:11:26.465Z,8.85
2024-01-04T00:12:26.414Z,8.77
2024-01-04T00:13:26.385Z,8.80
2024-01-04T00:14:26.356Z,8.73
2024-01-04T00:15:26.356Z,8.81
2024-01-04T00:16:26.330Z,8.75
2024-01-04T00:17:26.312Z,8.72
2024-01-04T00:18:26.449Z,8.67
2024-01-04T00:19:26.374Z,8.80
2024-01-04T00:20:26.269Z,8.70
2024-01-04T00:21:26.243Z,8.67
2024-01-04T00:22:26.217Z,8.75
2024-01-04T00:23:26.218Z,8.69
2024-01-04T00:24:26.182Z,8.70
2024-01-04T00:25:26.175Z,8.70
2024-01-04T00:26:26.170Z,8.70
2024-01-04T00:27:26.128Z,8.67
2024-01-04T00:28:26.117Z,8.72
2024-01-04T00:29:26.087Z,8.64
2024-01-04T00:30:26.185Z,8.62
2024-01-04T00:31:26.057Z,8.70
2024-01-04T00:32:26.087Z,8.69
2024-01-04T00:33:26.109Z,8.81
2024-01-04T00:34:26.092Z,8.70
2024-01-04T00:35:25.989Z,8.78
2024-01-04T00:36:25.971Z,8.77
2024-01-04T00:37:25.953Z,8.72
2024-01-04T00:38:25.933Z,8.69
2024-01-04T00:39:25.911Z,8.67
2024-01-04T00:40:25.899Z,8.70
2024-01-04T00:41:25.878Z,8.73
2024-01-04T00:42:25.865Z,8.67
2024-01-04T00:43:25.843Z,8.69
2024-01-04T00:44:25.879Z,8.66
2024-01-04T00:45:25.840Z,8.75
2024-01-04T00:46:25.794Z,8.78
2024-01-04T00:47:25.822Z,8.70
2024-01-04T00:48:25.921Z,8.73
2024-01-04T00:49:25.841Z,8.75
2024-01-04T00:50:25.741Z,8.72
2024-01-04T00:51:25.705Z,8.70
2024-01-04T00:52:25.681Z,8.69
2024-01-04T00:53:25.662Z,8.72
2024-01-04T00:54:25.647Z,8.78
2024-01-04T00:55:25.636Z,8.75
2024-01-04T00:56:25.626Z,8.82
2024-01-04T00:57:25.592Z,8.84
2024-01-04T00:58:25.579Z,8.82
2024-01-04T00:59:25.559Z,8.90
2024-01-04T01:00:25.543Z,8.81
2024-01-04T01:01:25.525Z,8.84
2024-01-04T01:02:25.499Z,8.93
2024-01-04T01:03:25.630Z,8.88
2024-01-04T01:04:25.465Z,8.88
2024-01-04T01:05:25.449Z,8.91
2024-01-04T01:06:25.481Z,8.93
2024-01-04T01:07:25.416Z,8.99
2024-01-04T01:08:25.401Z,8.93
2024-01-04T01:09:25.411Z,8.96
2024-01-04T01:10:25.367Z,9.02
2024-01-04T01:11:25.348Z,8.96
2024-01-04T01:12:25.342Z,8.95
2024-01-04T01:13:25.326Z,9.03
2024-01-04T01:14:25.288Z,8.99
2024-01-04T01:15:25.273Z,8.90
2024-01-04T01:16:25.248Z,9.05
2024-01-04T01:17:25.255Z,9.08
2024-01-04T01:18:25.316Z,9.06
2024-01-04T01:19:25.307Z,9.10
2024-01-04T01:20:25.182Z,9.10
2024-01-04T01:21:25.159Z,9.08
2024-01-04T01:22:25.145Z,9.06
2024-01-04T01:23:25.128Z,9.06
2024-01-04T01:24:25.109Z,9.11
2024-01-04T01:25:25.096Z,9.10
2024-01-04T01:26:25.082Z,9.14
2024-01-04T01:27:25.054Z,9.06
2024-01-04T01:28:25.035Z,9.06
2024-01-04T01:29:25.020Z,9.08
2024-01-04T01:30:25.105Z,9.08
2024-01-04T01:31:25.003Z,9.08
2024-01-04T01:32:24.970Z,9.10
2024-01-04T01:33:25.200Z,9.10
2024-01-04T01:34:25.018Z,9.06
2024-01-04T01:35:24.933Z,9.08
2024-01-04T01:36:24.953Z,9.08
2024-01-04T01:37:24.873Z,9.08
2024-01-04T01:38:24.922Z,9.14
2024-01-04T01:39:24.885Z,9.06
2024-01-04T01:40:24.853Z,9.14
2024-01-04T01:41:24.834Z,9.10
2024-01-04T01:42:24.859Z,9.08
2024-01-04T01:43:24.851Z,9.14
2024-01-04T01:44:24.852Z,9.10
2024-01-04T01:45:24.778Z,9.10
2024-01-04T01:46:24.751Z,9.14
2024-01-04T01:47:24.715Z,9.08
2024-01-04T01:48:24.851Z,9.06
2024-01-04T01:49:24.795Z,9.14
2024-01-04T01:50:24.654Z,9.10
2024-01-04T01:51:24.642Z,9.14
2024-01-04T01:52:24.625Z,9.16
2024-01-04T01:53:24.608Z,9.10
2024-01-04T01:54:24.591Z,9.10
2024-01-04T01:55:24.564Z,9.16
2024-01-04T01:56:24.557Z,9.10
2024-01-04T01:57:24.538Z,9.11
2024-01-04T01:58:24.525Z,9.16
2024-01-04T01:59:27.693Z,9.19
2024-01-04T02:00:24.496Z,9.15
2024-01-04T02:01:24.460Z,9.25
2024-01-04T02:02:24.441Z,9.24
2024-01-04T02:03:24.490Z,9.19
2024-01-04T02:04:24.409Z,9.22
2024-01-04T02:05:24.416Z,9.28
2024-01-04T02:06:24.475Z,9.21
2024-01-04T02:07:24.352Z,9.19
2024-01-04T02:08:24.337Z,9.22
2024-01-04T02:09:24.320Z,9.26
2024-01-04T02:10:24.311Z,9.26
2024-01-04T02:11:24.280Z,9.26
2024-01-04T02:12:24.275Z,9.19
2024-01-04T02:13:24.246Z,9.25
2024-01-04T02:14:24.246Z,9.21
2024-01-04T02:15:24.211Z,9.21
2024-01-04T02:16:24.198Z,9.25
2024-01-04T02:17:24.177Z,9.22
2024-01-04T02:18:24.305Z,9.25
2024-01-04T02:19:24.221Z,9.22
2024-01-04T02:20:24.137Z,9.26
2024-01-04T02:21:24.107Z,9.25
2024-01-04T02:22:24.102Z,9.19
2024-01-04T02:23:24.082Z,9.26
2024-01-04T02:24:24.060Z,9.24
2024-01-04T02:25:24.078Z,9.21
2024-01-04T02:26:24.021Z,9.22
2024-01-04T02:27:24.008Z,9.24
2024-01-04T02:28:24.001Z,9.15
2024-01-04T02:29:23.997Z,9.15
2024-01-04T02:30:23.994Z,9.16
2024-01-04T02:31:23.936Z,9.21
2024-01-04T02:32:23.932Z,9.16
2024-01-04T02:33:24.022Z,9.21
2024-01-04T02:34:24.004Z,9.19
2024-01-04T02:35:23.879Z,9.24
2024-01-04T02:36:23.850Z,9.24
2024-01-04T02:37:23.829Z,9.24
2024-01-04T02:38:23.818Z,9.21
2024-01-04T02:39:23.813Z,9.28
2024-01-04T02:40:23.775Z,9.22
2024-01-04T02:41:23.768Z,9.25
2024-01-04T02:42:23.741Z,9.19
2024-01-04T02:43:23.721Z,9.22
2024-01-04T02:44:23.716Z,9.24
2024-01-04T02:45:23.697Z,9.22
2024-01-04T02:46:23.680Z,9.25
2024-01-04T02:47:23.700Z,9.22
2024-01-04T02:48:23.800Z,9.25
2024-01-04T02:49:23.784Z,9.25
2024-01-04T02:50:23.614Z,9.25
2024-01-04T02:51:23.627Z,9.25
2024-01-04T02:52:23.586Z,9.15
2024-01-04T02:53:23.570Z,9.08
2024-01-04T02:54:23.553Z,9.15
2024-01-04T02:55:23.534Z,9.16
2024-01-04T02:56:23.517Z,9.15
2024-01-04T02:57:23.504Z,9.08
2024-01-04T02:58:23.481Z,9.06
2024-01-04T02:59:23.475Z,9.10
2024-01-04T03:00:23.443Z,9.08
2024-01-04T03:01:23.459Z,9.11
2024-01-04T03:02:23.445Z,9.03
2024-01-04T03:03:23.477Z,9.06
2024-01-04T03:04:23.457Z,9.06
2024-01-04T03:05:23.389Z,9.06
2024-01-04T03:06:23.390Z,9.02
2024-01-04T03:07:23.343Z,9.06
2024-01-04T03:08:23.306Z,9.05
2024-01-04T03:09:23.388Z,9.14
2024-01-04T03:10:23.320Z,9.10
2024-01-04T03:11:23.289Z,9.11
2024-01-04T03:12:23.245Z,9.10
2024-01-04T03:13:23.229Z,9.21
2024-01-04T03:14:23.216Z,9.22
2024-01-04T03:15:23.220Z,9.21
2024-01-04T03:16:23.190Z,9.21
2024-01-04T03:17:23.155Z,9.21
2024-01-04T03:18:23.259Z,9.28
2024-01-04T03:19:23.234Z,9.21
2024-01-04T03:20:23.120Z,9.25
2024-01-04T03:21:23.097Z,9.22
2024-01-04T03:22:23.077Z,9.14
2024-01-04T03:23:23.068Z,9.10
2024-01-04T03:24:23.036Z,8.99
2024-01-04T03:25:23.021Z,8.96
2024-01-04T03:26:23.006Z,8.98
2024-01-04T03:27:22.985Z,8.90
2024-01-04T03:28:22.973Z,8.77
2024-01-04T03:29:22.955Z,8.73
2024-01-04T03:30:23.032Z,8.75
2024-01-04T03:31:22.920Z,8.77
2024-01-04T03:32:22.904Z,8.70
2024-01-04T03:33:22.971Z,8.69
2024-01-04T03:34:22.935Z,8.66
2024-01-04T03:35:22.848Z,8.60
2024-01-04T03:36:22.838Z,8.75
2024-01-04T03:37:22.816Z,8.66
2024-01-04T03:38:22.793Z,8.60
2024-01-04T03:39:22.791Z,8.60
2024-01-04T03:40:22.754Z,8.63
2024-01-04T03:41:22.744Z,8.63
2024-01-04T03:42:22.780Z,8.64
2024-01-04T03:43:22.712Z,8.59
2024-01-04T03:44:22.692Z,8.62
2024-01-04T03:45:22.713Z,8.66
2024-01-04T03:46:22.654Z,8.66
2024-01-04T03:47:22.646Z,8.75
2024-01-04T03:48:22.657Z,8.67
2024-01-04T03:49:22.694Z,8.72
2024-01-04T03:50:22.582Z,8.75
2024-01-04T03:51:22.614Z,8.70
2024-01-04T03:52:22.574Z,8.78
2024-01-04T03:53:22.528Z,8.78
2024-01-04T03:54:22.572Z,8.67
2024-01-04T03:55:22.484Z,8.69
2024-01-04T03:56:22.468Z,8.72
2024-01-04T03:57:22.550Z,8.75
2024-01-04T03:58:25.908Z,8.78
2024-01-04T03:59:22.408Z,8.80
2024-01-04T04:00:22.452Z,8.78
2024-01-04T04:01:22.363Z,8.82
2024-01-04T04:02:22.339Z,8.81
2024-01-04T04:03:22.411Z,8.87
2024-01-04T04:04:22.370Z,8.80
2024-01-04T04:05:22.328Z,8.85
2024-01-04T04:06:22.331Z,8.88
2024-01-04T04:07:22.247Z,8.84
2024-01-04T04:08:22.221Z,8.81
2024-01-04T04:09:22.252Z,8.82
2024-01-04T04:10:22.179Z,8.85
2024-01-04T04:11:22.174Z,8.82
2024-01-04T04:12:22.176Z,8.87
2024-01-04T04:13:22.136Z,8.82
2024-01-04T04:14:22.115Z,8.88
2024-01-04T04:15:22.139Z,8.88
2024-01-04T04:16:22.068Z,8.88
2024-01-04T04:17:22.050Z,8.90
2024-01-04T04:18:22.166Z,8.80
2024-01-04T04:19:22.136Z,8.90
2024-01-04T04:20:22.003Z,8.87
2024-01-04T04:21:22.036Z,8.85
2024-01-04T04:22:21.962Z,8.96
2024-01-04T04:23:21.944Z,8.85
2024-01-04T04:24:21.987Z,8.91
2024-01-04T04:25:21.925Z,8.87
2024-01-04T04:26:21.940Z,8.84
2024-01-04T04:27:21.926Z,8.80
2024-01-04T04:28:21.851Z,8.91
2024-01-04T04:29:21.844Z,8.90
2024-01-04T04:30:21.943Z,8.96
2024-01-04T04:31:21.857Z,8.91
2024-01-04T04:32:21.790Z,8.91
2024-01-04T04:33:21.836Z,8.95
2024-01-04T04:34:21.843Z,8.99
2024-01-04T04:35:21.768Z,8.91
2024-01-04T04:36:21.796Z,8.95
2024-01-04T04:37:21.704Z,8.88
2024-01-04T04:38:21.695Z,8.91
2024-01-04T04:39:21.732Z,8.88
2024-01-04T04:40:21.648Z,8.95
2024-01-04T04:41:21.651Z,8.99
2024-01-04T04:42:21.633Z,8.91
2024-01-04T04:43:21.608Z,8.87
2024-01-04T04:44:21.586Z,8.93
2024-01-04T04:45:21.668Z,8.90
2024-01-04T04:46:21.548Z,8.96
2024-01-04T04:47:21.530Z,9.00
2024-01-04T04:48:21.738Z,8.95
2024-01-04T04:49:21.716Z,8.96
2024-01-04T04:50:21.472Z,8.91
2024-01-04T04:51:21.488Z,9.02
2024-01-04T04:52:21.437Z,8.93
2024-01-04T04:53:21.425Z,8.95
2024-01-04T04:54:21.443Z,9.02
2024-01-04T04:55:21.388Z,8.99
2024-01-04T04:56:21.369Z,8.93
2024-01-04T04:57:21.457Z,8.95
2024-01-04T04:58:21.330Z,9.00
2024-01-04T04:59:21.321Z,8.96
2024-01-04T05:00:21.313Z,8.95
2024-01-04T05:01:21.286Z,8.91
2024-01-04T05:02:21.275Z,8.98
2024-01-04T05:03:21.327Z,8.95
2024-01-04T05:04:21.280Z,8.91
2024-01-04T05:05:21.270Z,8.90
2024-01-04T05:06:21.385Z,8.99
2024-01-04T05:07:21.185Z,8.96
2024-01-04T05:08:21.171Z,8.96
2024-01-04T05:09:21.212Z,8.93
2024-01-04T05:10:21.136Z,8.95
2024-01-04T05:11:21.111Z,8.90
2024-01-04T05:12:21.160Z,8.90
2024-01-04T05:13:21.090Z,8.88
2024-01-04T05:14:21.076Z,8.82
2024-01-04T05:15:21.113Z,8.78
2024-01-04T05:16:21.024Z,8.81
2024-01-04T05:17:21.024Z,8.78
2024-01-04T05:18:21.088Z,8.75
2024-01-04T05:19:21.030Z,8.69
2024-01-04T05:20:20.958Z,8.69
2024-01-04T05:21:21.016Z,8.72
2024-01-04T05:22:20.935Z,8.72
2024-01-04T05:23:20.902Z,8.69
2024-01-04T05:24:21.135Z,8.75
2024-01-04T05:25:20.883Z,8.69
2024-01-04T05:26:20.857Z,8.75
2024-01-04T05:27:20.873Z,8.75
2024-01-04T05:28:20.819Z,8.67
2024-01-04T05:29:20.806Z,8.64
2024-01-04T05:30:20.964Z,8.72
2024-01-04T05:31:20.768Z,8.67
2024-01-04T05:32:20.761Z,8.67
2024-01-04T05:33:20.803Z,8.73
2024-01-04T05:34:20.755Z,8.77
2024-01-04T05:35:20.698Z,8.75
2024-01-04T05:36:20.810Z,8.77
2024-01-04T05:37:20.667Z,8.75
2024-01-04T05:38:20.670Z,8.72
2024-01-04T05:39:20.680Z,8.70
2024-01-04T05:40:20.610Z,8.75
2024-01-04T05:41:20.587Z,8.67
2024-01-04T05:42:20.589Z,8.67
2024-01-04T05:43:20.548Z,8.78
2024-01-04T05:44:20.535Z,8.81
2024-01-04T05:45:20.590Z,8.80
2024-01-04T05:46:20.496Z,8.78
2024-01-04T05:47:20.488Z,8.81
2024-01-04T05:48:20.536Z,8.77
2024-01-04T05:49:20.599Z,8.81
2024-01-04T05:50:20.424Z,8.81
2024-01-04T05:51:20.537Z,8.75
2024-01-04T05:52:20.386Z,8.81
2024-01-04T05:53:20.384Z,8.81
2024-01-04T05:54:20.431Z,8.82
2024-01-04T05:55:20.351Z,8.78
2024-01-04T05:56:20.317Z,8.84
2024-01-04T05:57:20.406Z,8.85
2024-01-04T05:58:20.291Z,8.87
2024-01-04T05:59:20.268Z,8.87
2024-01-04T06:00:20.322Z,8.84
2024-01-04T06:01:20.323Z,8.82
2024-01-04T06:02:20.222Z,8.81
2024-01-04T06:03:20.281Z,8.87
2024-01-04T06:04:20.241Z,8.88
2024-01-04T06:05:20.210Z,8.87
2024-01-04T06:06:20.214Z,8.81
2024-01-04T06:07:20.138Z,8.87
2024-01-04T06:08:20.158Z,8.87
2024-01-04T06:09:20.170Z,8.90
2024-01-04T06:10:20.080Z,8.87
2024-01-04T06:11:20.060Z,8.95
2024-01-04T06:12:20.089Z,8.91
2024-01-04T06:13:20.100Z,8.90
2024-01-04T06:14:20.004Z,8.88
2024-01-04T06:15:20.049Z,8.93
2024-01-04T06:16:19.974Z,8.91
2024-01-04T06:17:20.015Z,8.96
2024-01-04T06:18:20.130Z,8.98
2024-01-04T06:19:20.123Z,8.95
2024-01-04T06:20:19.901Z,8.91
2024-01-04T06:21:19.902Z,8.95
2024-01-04T06:22:19.866Z,8.88
2024-01-04T06:23:19.842Z,8.96
2024-01-04T06:24:19.874Z,8.96
2024-01-04T06:25:19.807Z,8.98
2024-01-04T06:26:19.790Z,8.88
2024-01-04T06:27:19.981Z,8.93
2024-01-04T06:28:19.763Z,8.95
2024-01-04T06:29:19.740Z,8.95
2024-01-04T06:30:22.066Z,8.95
2024-01-04T06:31:19.746Z,8.98
2024-01-04T06:32:19.695Z,8.93
2024-01-04T06:33:19.798Z,8.96
2024-01-04T06:34:19.754Z,9.03
2024-01-04T06:35:19.641Z,8.96
2024-01-04T06:36:19.686Z,8.96
2024-01-04T06:37:19.595Z,8.91
2024-01-04T06:38:19.585Z,8.87
2024-01-04T06:39:19.628Z,8.93
2024-01-04T06:40:19.544Z,8.95
2024-01-04T06:41:19.547Z,8.95
2024-01-04T06:42:19.532Z,9.03
2024-01-04T06:43:19.500Z,8.90
2024-01-04T06:44:20.918Z,9.00
2024-01-04T06:45:19.482Z,8.95
2024-01-04T06:46:19.476Z,8.96
2024-01-04T06:47:19.423Z,8.96
2024-01-04T06:48:19.541Z,8.93
2024-01-04T06:49:19.721Z,9.03
2024-01-04T06:50:19.917Z,8.99
2024-01-04T06:51:19.445Z,9.05
2024-01-04T06:52:19.339Z,9.00
2024-01-04T06:53:19.331Z,8.96
2024-01-04T06:54:19.339Z,8.99
2024-01-04T06:55:19.295Z,8.95
2024-01-04T06:56:19.266Z,8.98
2024-01-04T06:57:19.318Z,8.96
2024-01-04T06:58:19.229Z,9.02
2024-01-04T06:59:19.225Z,8.96
2024-01-04T07:00:19.273Z,8.96
2024-01-04T07:01:19.208Z,8.99
2024-01-04T07:02:19.171Z,8.95
2024-01-04T07:03:19.292Z,8.95
2024-01-04T07:04:19.135Z,9.00
2024-01-04T07:05:19.133Z,8.93
2024-01-04T07:06:19.130Z,8.96
2024-01-04T07:07:19.088Z,8.98
2024-01-04T07:08:19.064Z,8.91
2024-01-04T07:09:19.216Z,9.05
2024-01-04T07:10:19.030Z,9.03
2024-01-04T07:11:19.048Z,9.15
2024-01-04T07:12:19.090Z,9.10
2024-01-04T07:13:18.964Z,9.11
2024-01-04T07:14:18.951Z,9.11
2024-01-04T07:15:18.985Z,9.11
2024-01-04T07:16:18.925Z,9.15
2024-01-04T07:17:18.912Z,9.10
2024-01-04T07:18:19.003Z,9.06
2024-01-04T07:19:18.921Z,9.10
2024-01-04T07:20:20.355Z,9.11
2024-01-04T07:21:19.059Z,9.11
2024-01-04T07:22:18.814Z,9.08
2024-01-04T07:23:18.792Z,9.06
2024-01-04T07:24:18.821Z,9.10
2024-01-04T07:25:18.755Z,9.14
2024-01-04T07:26:18.761Z,9.10
2024-01-04T07:27:18.798Z,9.15
2024-01-04T07:28:18.723Z,9.03
2024-01-04T07:29:18.688Z,9.05
2024-01-04T07:30:18.822Z,9.14
2024-01-04T07:31:18.697Z,9.14
2024-01-04T07:32:18.633Z,9.11
2024-01-04T07:33:18.709Z,9.10
2024-01-04T07:34:18.682Z,9.02
2024-01-04T07:35:18.666Z,9.06
2024-01-04T07:36:18.579Z,9.06
2024-01-04T07:37:18.547Z,9.05
2024-01-04T07:38:18.540Z,9.14
2024-01-04T07:39:18.565Z,9.08
2024-01-04T07:40:18.499Z,9.15
2024-01-04T07:41:18.484Z,9.11
2024-01-04T07:42:18.502Z,9.25
2024-01-04T07:43:18.445Z,9.24
2024-01-04T07:44:18.439Z,9.21
2024-01-04T07:45:18.440Z,9.22
2024-01-04T07:46:18.394Z,9.26
2024-01-04T07:47:18.378Z,9.15
2024-01-04T07:48:18.465Z,9.26
2024-01-04T07:49:18.483Z,9.24
2024-01-04T07:50:18.317Z,9.24
2024-01-04T07:51:18.345Z,9.24
2024-01-04T07:52:18.284Z,9.18
2024-01-04T07:53:18.280Z,9.26
2024-01-04T07:54:18.308Z,9.25
2024-01-04T07:55:18.235Z,9.25
2024-01-04T07:56:18.219Z,9.25
2024-01-04T07:57:18.348Z,9.21
2024-01-04T07:58:18.190Z,9.19
2024-01-04T07:59:18.160Z,9.22
2024-01-04T08:00:18.242Z,9.28
2024-01-04T08:01:18.147Z,9.25
2024-01-04T08:02:18.110Z,9.26
2024-01-04T08:03:18.295Z,9.22
2024-01-04T08:04:18.137Z,9.24
2024-01-04T08:05:18.058Z,9.26
2024-01-04T08:06:18.133Z,9.28
2024-01-04T08:07:18.020Z,9.28
2024-01-04T08:08:18.011Z,9.28
2024-01-04T08:09:18.023Z,9.26
2024-01-04T08:10:17.968Z,9.22
2024-01-04T08:11:17.965Z,9.21
2024-01-04T08:12:18.004Z,9.28
2024-01-04T08:13:17.929Z,9.26
2024-01-04T08:14:17.902Z,9.29
2024-01-04T08:15:17.909Z,9.24
2024-01-04T08:16:17.872Z,9.28
2024-01-04T08:17:17.952Z,9.29
2024-01-04T08:18:17.929Z,9.33
2024-01-04T08:19:17.956Z,9.32
2024-01-04T08:20:17.894Z,9.26
2024-01-04T08:21:17.854Z,9.26
2024-01-04T08:22:17.776Z,9.26
2024-01-04T08:23:17.743Z,9.26
2024-01-04T08:24:18.579Z,9.29
2024-01-04T08:25:17.711Z,9.28
2024-01-04T08:26:17.704Z,9.25
2024-01-04T08:27:17.691Z,9.28
2024-01-04T08:28:17.656Z,9.29
2024-01-04T08:29:17.645Z,9.32
2024-01-04T08:30:17.657Z,9.37
2024-01-04T08:31:17.634Z,9.34
2024-01-04T08:32:17.606Z,9.43
2024-01-04T08:33:17.722Z,9.36
2024-01-04T08:34:17.760Z,9.40
2024-01-04T08:35:17.546Z,9.42
2024-01-04T08:36:17.641Z,9.39
2024-01-04T08:37:17.505Z,9.46
2024-01-04T08:38:17.482Z,9.40
2024-01-04T08:39:17.490Z,9.44
2024-01-04T08:40:17.452Z,9.49
2024-01-04T08:41:17.432Z,9.46
2024-01-04T08:42:20.549Z,9.54
2024-01-04T08:43:17.408Z,9.57
2024-01-04T08:44:17.385Z,9.54
2024-01-04T08:45:17.397Z,9.55
2024-01-04T08:46:17.358Z,9.55
2024-01-04T08:47:17.330Z,9.49
2024-01-04T08:48:17.439Z,9.43
2024-01-04T08:49:17.408Z,9.40
2024-01-04T08:50:17.343Z,9.39
2024-01-04T08:51:17.296Z,9.24
2024-01-04T08:52:17.252Z,9.28
2024-01-04T08:53:17.220Z,9.32
2024-01-04T08:54:17.311Z,9.25
2024-01-04T08:55:17.182Z,9.21
2024-01-04T08:56:17.177Z,9.25
2024-01-04T08:57:17.215Z,9.32
2024-01-04T08:58:17.135Z,9.24
2024-01-04T08:59:17.127Z,9.22
2024-01-04T09:00:17.239Z,9.21
2024-01-04T09:01:17.110Z,9.21
2024-01-04T09:02:17.054Z,9.15
2024-01-04T09:03:17.193Z,9.15
2024-01-04T09:04:17.057Z,9.16
2024-01-04T09:05:17.038Z,9.14
2024-01-04T09:06:17.024Z,9.10
2024-01-04T09:07:16.970Z,9.16
2024-01-04T09:08:16.978Z,9.15
2024-01-04T09:09:16.986Z,9.14
2024-01-04T09:10:16.914Z,9.21
2024-01-04T09:11:16.905Z,9.28
2024-01-04T09:12:16.990Z,9.19
2024-01-04T09:13:16.868Z,9.22
2024-01-04T09:14:16.861Z,9.21
2024-01-04T09:15:16.894Z,9.22
2024-01-04T09:16:16.818Z,9.21
2024-01-04T09:17:16.812Z,9.33
2024-01-04T09:18:16.902Z,9.26
2024-01-04T09:19:16.968Z,9.24
2024-01-04T09:20:16.763Z,9.29
2024-01-04T09:21:16.762Z,9.28
2024-01-04T09:22:16.754Z,9.24
2024-01-04T09:23:16.695Z,9.25
2024-01-04T09:24:16.752Z,9.32
2024-01-04T09:25:16.662Z,9.22
2024-01-04T09:26:16.654Z,9.25
2024-01-04T09:27:16.662Z,9.32
2024-01-04T09:28:16.619Z,9.21
2024-01-04T09:29:16.616Z,9.26
2024-01-04T09:30:16.743Z,9.28
2024-01-04T09:31:16.654Z,9.21
2024-01-04T09:32:16.550Z,9.28
2024-01-04T09:33:16.780Z,9.10
2024-01-04T09:34:16.639Z,9.10
2024-01-04T09:35:16.528Z,9.08
2024-01-04T09:36:16.532Z,9.08
2024-01-04T09:37:16.455Z,9.05
2024-01-04T09:38:16.500Z,9.11
2024-01-04T09:39:16.452Z,9.08
2024-01-04T09:40:16.409Z,9.06
2024-01-04T09:41:16.389Z,9.08
2024-01-04T09:42:16.481Z,9.14
2024-01-04T09:43:16.435Z,9.21
2024-01-04T09:44:16.345Z,9.22
2024-01-04T09:45:16.329Z,9.15
2024-01-04T09:46:16.359Z,9.19
2024-01-04T09:47:16.290Z,9.19
2024-01-04T09:48:24.257Z,9.11
2024-01-04T09:49:16.351Z,9.16
2024-01-04T09:50:16.382Z,9.16
2024-01-04T09:51:16.241Z,9.19
2024-01-04T09:52:16.194Z,9.19
2024-01-04T09:53:16.177Z,9.18
2024-01-04T09:54:16.458Z,9.21
2024-01-04T09:55:16.224Z,9.25
2024-01-04T09:56:16.315Z,9.11
2024-01-04T09:57:16.765Z,9.10
2024-01-04T09:58:16.076Z,9.15
2024-01-04T09:59:16.218Z,9.10
2024-01-04T10:00:16.093Z,9.14
2024-01-04T10:01:16.043Z,9.11
2024-01-04T10:02:16.059Z,9.18
2024-01-04T10:03:16.128Z,9.25
2024-01-04T10:04:16.130Z,9.21
2024-01-04T10:05:15.997Z,9.21
2024-01-04T10:06:16.050Z,9.29
2024-01-04T10:07:15.935Z,9.37
2024-01-04T10:08:15.912Z,9.40
2024-01-04T10:09:15.956Z,9.54
2024-01-04T10:10:15.969Z,9.58
2024-01-04T10:11:15.855Z,9.52
2024-01-04T10:12:15.860Z,9.54
2024-01-04T10:13:15.813Z,9.64
2024-01-04T10:14:15.860Z,9.75
2024-01-04T10:15:15.832Z,9.86
2024-01-04T10:16:15.880Z,10.04
2024-01-04T10:17:15.842Z,10.33
2024-01-04T10:18:15.871Z,10.43
2024-01-04T10:19:15.842Z,10.37
2024-01-04T10:20:15.726Z,10.57
2024-01-04T10:21:15.685Z,10.60
2024-01-04T10:22:15.659Z,10.86
2024-01-04T10:23:15.634Z,11.05
2024-01-04T10:24:15.654Z,11.15
2024-01-04T10:25:16.628Z,11.26
2024-01-04T10:26:15.822Z,11.17
2024-01-04T10:27:15.616Z,11.15
2024-01-04T10:28:16.115Z,11.10
2024-01-04T10:29:15.544Z,11.01
2024-01-04T10:30:16.175Z,11.03
2024-01-04T10:31:16.709Z,11.19
2024-01-04T10:32:15.497Z,11.19
2024-01-04T10:33:15.933Z,11.14
2024-01-04T10:34:16.587Z,11.22
2024-01-04T10:35:15.437Z,11.05
2024-01-04T10:36:15.463Z,11.23
2024-01-04T10:37:15.999Z,11.22
2024-01-04T10:38:15.916Z,11.26
2024-01-04T10:39:15.418Z,11.29
2024-01-04T10:40:16.165Z,11.37
2024-01-04T10:41:22.773Z,11.40
2024-01-04T10:42:15.360Z,11.40
2024-01-04T10:43:15.734Z,11.29
2024-01-04T10:44:15.314Z,11.19
2024-01-04T10:45:19.367Z,11.22
2024-01-04T10:46:16.697Z,11.15
2024-01-04T10:47:15.431Z,11.23
2024-01-04T10:48:15.383Z,11.29
2024-01-04T10:49:16.032Z,11.37
2024-01-04T10:50:15.919Z,11.40
2024-01-04T10:51:16.650Z,11.38
2024-01-04T10:52:15.728Z,11.37
2024-01-04T10:53:16.758Z,11.32
2024-01-04T10:54:16.695Z,11.41
2024-01-04T10:55:15.100Z,11.37
2024-01-04T10:56:15.091Z,11.23
2024-01-04T10:57:15.136Z,11.11
2024-01-04T10:58:15.112Z,11.25
2024-01-04T10:59:15.032Z,11.11
2024-01-04T11:00:15.094Z,11.01
2024-01-04T11:01:15.080Z,11.08
2024-01-04T11:02:14.983Z,10.95
2024-01-04T11:03:14.987Z,10.85
2024-01-04T11:04:14.995Z,10.85
2024-01-04T11:05:14.989Z,10.68
2024-01-04T11:06:14.964Z,10.60
2024-01-04T11:07:14.928Z,10.56
2024-01-04T11:08:14.880Z,10.49
2024-01-04T11:09:14.893Z,10.40
2024-01-04T11:10:14.843Z,10.41
2024-01-04T11:12:23.513Z,10.33
2024-01-04T11:14:20.303Z,10.27
2024-01-04T11:15:20.333Z,10.18
2024-01-04T11:17:24.857Z,10.01
2024-01-04T11:18:24.918Z,9.94
2024-01-04T11:20:32.216Z,9.86
2024-01-04T11:21:30.264Z,9.83
2024-01-04T11:23:35.718Z,9.88
2024-01-04T11:24:35.687Z,9.94
2024-01-04T11:26:41.271Z,9.97
2024-01-04T11:27:41.132Z,9.91
2024-01-04T11:28:41.230Z,9.88
2024-01-04T11:29:41.134Z,9.79
2024-01-04T11:30:41.236Z,9.88
2024-01-04T11:31:41.062Z,9.90
2024-01-04T11:32:41.160Z,9.97
2024-01-04T11:33:41.136Z,9.94
2024-01-04T11:34:41.108Z,10.02
2024-01-04T11:35:41.017Z,10.08
2024-01-04T11:36:40.981Z,10.08
2024-01-04T11:37:40.952Z,10.12
2024-01-04T11:38:40.978Z,10.08
2024-01-04T11:39:40.919Z,10.02
2024-01-04T11:40:40.919Z,10.00
2024-01-04T11:41:41.022Z,10.00
2024-01-04T11:42:40.896Z,10.02
2024-01-04T11:43:40.849Z,10.08
2024-01-04T11:44:40.887Z,10.08
2024-01-04T11:45:40.822Z,10.10
2024-01-04T11:46:40.799Z,10.09
2024-01-04T11:47:40.866Z,10.06
2024-01-04T11:48:40.821Z,10.06
2024-01-04T11:49:40.881Z,10.08
2024-01-04T11:50:40.776Z,10.13
2024-01-04T11:51:40.731Z,10.15
2024-01-04T11:52:40.697Z,10.26
2024-01-04T11:53:40.707Z,10.19
2024-01-04T11:54:40.675Z,10.23
2024-01-04T11:55:40.669Z,10.20
2024-01-04T11:56:40.647Z,10.10
2024-01-04T11:57:40.624Z,10.09
2024-01-04T11:58:40.593Z,10.19
2024-01-04T11:59:40.620Z,10.16
2024-01-04T12:00:40.674Z,10.20
2024-01-04T12:01:40.559Z,10.27
2024-01-04T12:02:40.537Z,10.26
2024-01-04T12:03:40.513Z,10.26
2024-01-04T12:04:40.506Z,10.27
2024-01-04T12:05:40.539Z,10.37
2024-01-04T12:06:40.473Z,10.49
2024-01-04T12:07:40.501Z,10.56
2024-01-04T12:08:40.498Z,10.67
2024-01-04T12:09:40.650Z,10.78
2024-01-04T12:10:40.397Z,10.86
2024-01-04T12:11:40.443Z,10.79
2024-01-04T12:12:40.353Z,10.82
2024-01-04T12:13:40.353Z,10.74
2024-01-04T12:14:40.367Z,10.56
2024-01-04T12:15:40.315Z,10.49
2024-01-04T12:16:40.289Z,10.54
2024-01-04T12:17:40.401Z,10.46
2024-01-04T12:18:40.423Z,10.48
2024-01-04T12:19:40.279Z,10.43
2024-01-04T12:20:40.248Z,10.45
2024-01-04T12:21:40.226Z,10.48
2024-01-04T12:22:40.193Z,10.45
2024-01-04T12:23:40.190Z,10.46
2024-01-04T12:24:40.159Z,10.41
2024-01-04T12:25:40.137Z,10.46
2024-01-04T12:26:40.188Z,10.38
2024-01-04T12:27:40.103Z,10.34
2024-01-04T12:28:40.088Z,10.34
2024-01-04T12:29:40.107Z,10.40
2024-01-04T12:30:40.162Z,10.49
2024-01-04T12:31:40.128Z,10.49
2024-01-04T12:32:40.088Z,10.53
2024-01-04T12:33:40.074Z,10.49
2024-01-04T12:34:40.016Z,10.48
2024-01-04T12:35:39.994Z,10.45
2024-01-04T12:36:39.954Z,10.49
2024-01-04T12:37:39.928Z,10.35
2024-01-04T12:38:39.946Z,10.34
2024-01-04T12:39:39.900Z,10.27
2024-01-04T12:40:39.895Z,10.28
2024-01-04T12:41:39.930Z,10.28
2024-01-04T12:42:39.870Z,10.26
2024-01-04T12:43:39.833Z,10.19
2024-01-04T12:44:39.843Z,10.31
2024-01-04T12:45:39.794Z,10.28
2024-01-04T12:46:39.773Z,10.16
2024-01-04T12:47:39.942Z,10.19
2024-01-04T12:48:39.853Z,10.08
2024-01-04T12:49:39.842Z,10.04
2024-01-04T12:50:39.768Z,10.08
2024-01-04T12:51:39.720Z,10.02
2024-01-04T12:52:39.718Z,9.93
2024-01-04T12:53:39.787Z,10.01
2024-01-04T12:54:39.636Z,9.98
2024-01-04T12:55:39.622Z,9.98
2024-01-04T12:56:39.713Z,9.98
2024-01-04T12:57:39.596Z,10.00
2024-01-04T12:58:39.577Z,9.98
2024-01-04T12:59:39.555Z,9.93
2024-01-04T13:00:39.610Z,9.91
2024-01-04T13:01:39.548Z,9.93
2024-01-04T13:02:39.505Z,9.93
2024-01-04T13:03:39.629Z,9.83
2024-01-04T13:04:39.470Z,9.83
2024-01-04T13:05:39.450Z,9.85
2024-01-04T13:06:39.529Z,9.79
2024-01-04T13:07:39.435Z,9.85
2024-01-04T13:08:39.419Z,9.86
2024-01-04T13:09:39.384Z,9.85
2024-01-04T13:10:39.371Z,9.76
2024-01-04T13:11:39.352Z,9.85
2024-01-04T13:12:39.330Z,9.79
2024-01-04T13:13:39.314Z,9.69
2024-01-04T13:14:39.305Z,9.76
2024-01-04T13:15:39.288Z,9.73
2024-01-04T13:16:39.274Z,9.85
2024-01-04T13:17:39.279Z,9.80
2024-01-04T13:18:39.314Z,9.85
2024-01-04T13:19:39.289Z,9.80